createdAt,value
2024-02-13T00:00:23.054Z,-3.91
2024-02-13T00:10:44.547Z,-3.92
2024-02-13T00:15:57.854Z,-4.00
2024-02-13T00:21:09.517Z,-3.98
2024-02-13T00:26:29.571Z,-4.01
2024-02-13T00:31:44.501Z,-4.05
2024-02-13T00:37:13.228Z,-4.10
2024-02-13T00:42:29.050Z,-4.05
2024-02-13T00:47:37.146Z,-4.09
2024-02-13T00:52:51.786Z,-4.22
2024-02-13T00:58:01.054Z,-4.04
2024-02-13T01:03:13.065Z,-4.12
2024-02-13T01:08:26.482Z,-4.17
2024-02-13T01:13:33.010Z,-4.32
2024-02-13T01:18:55.230Z,-4.29
2024-02-13T01:24:04.075Z,-4.43
2024-02-13T01:29:18.630Z,-4.41
2024-02-13T01:34:32.153Z,-4.51
2024-02-13T01:39:42.246Z,-4.57
2024-02-13T01:44:48.193Z,-4.59
2024-02-13T01:49:56.289Z,-4.70
2024-02-13T02:00:27.031Z,-4.70
2024-02-13T02:05:36.938Z,-4.86
2024-02-13T02:11:05.791Z,-4.95
2024-02-13T02:16:17.602Z,-5.06
2024-02-13T02:21:35.354Z,-4.98
2024-02-13T02:26:43.802Z,-5.07
2024-02-13T02:32:02.771Z,-5.04
2024-02-13T02:37:13.528Z,-5.19
2024-02-13T02:42:33.266Z,-5.12
2024-02-13T02:47:39.238Z,-5.14
2024-02-13T02:52:51.627Z,-5.20
2024-02-13T02:57:59.888Z,-5.16
2024-02-13T03:03:11.613Z,-5.15
2024-02-13T03:08:19.205Z,-5.21
2024-02-13T03:13:31.453Z,-5.22
2024-02-13T03:18:40.504Z,-5.32
2024-02-13T03:23:51.767Z,-5.31
2024-02-13T03:29:01.269Z,-5.34
2024-02-13T03:34:17.261Z,-5.23
2024-02-13T03:39:25.809Z,-5.32
2024-02-13T03:44:39.364Z,-5.32
2024-02-13T03:49:49.869Z,-5.30
2024-02-13T03:55:05.286Z,-5.31
2024-02-13T04:00:15.369Z,-5.42
2024-02-13T04:05:21.648Z,-5.33
2024-02-13T04:10:28.518Z,-5.27
2024-02-13T04:15:48.025Z,-5.21
2024-02-13T04:20:53.883Z,-5.11
2024-02-13T04:26:00.517Z,-5.20
2024-02-13T04:31:11.048Z,-5.20
2024-02-13T04:36:17.721Z,-5.27
2024-02-13T04:41:31.874Z,-5.24
2024-02-13T04:46:46.426Z,-5.15
2024-02-13T04:51:59.003Z,-5.29
2024-02-13T04:57:05.693Z,-5.41
2024-02-13T05:07:50.915Z,-5.44
2024-02-13T05:12:59.580Z,-5.50
2024-02-13T05:18:07.948Z,-5.59
2024-02-13T05:23:17.075Z,-5.51
2024-02-13T05:28:25.644Z,-5.49
2024-02-13T05:33:35.422Z,-5.46
2024-02-13T05:38:58.151Z,-5.55
2024-02-13T05:44:13.313Z,-5.36
2024-02-13T05:49:26.292Z,-5.39
2024-02-13T05:54:31.704Z,-5.39
2024-02-13T05:59:38.872Z,-5.47
2024-02-13T06:04:48.106Z,-5.64
2024-02-13T06:25:41.833Z,-5.58
2024-02-13T06:30:47.681Z,-5.68
2024-02-13T06:35:58.945Z,-5.58
2024-02-13T06:41:32.819Z,-5.54
2024-02-13T06:51:54.331Z,-5.48
2024-02-13T06:56:58.993Z,-5.48
2024-02-13T07:02:10.643Z,-5.44
2024-02-13T07:12:37.609Z,-5.41
2024-02-13T07:17:52.958Z,-5.41
2024-02-13T07:28:26.420Z,-5.35
2024-02-13T07:33:54.213Z,-5.31
2024-02-13T07:39:07.251Z,-5.38
2024-02-13T07:44:13.564Z,-5.44
2024-02-13T07:49:19.607Z,-5.30
2024-02-13T07:54:30.089Z,-5.40
2024-02-13T07:59:37.237Z,-5.57
2024-02-13T08:04:46.005Z,-5.49
2024-02-13T08:09:53.385Z,-5.59
2024-02-13T08:15:07.440Z,-5.41
2024-02-13T08:20:19.006Z,-5.33
2024-02-13T08:25:26.188Z,-5.31
2024-02-13T08:30:31.700Z,-5.18
2024-02-13T08:35:43.830Z,-5.19
2024-02-13T08:40:53.686Z,-4.89
2024-02-13T08:46:01.309Z,-4.62
2024-02-13T08:51:11.898Z,-4.38
2024-02-13T08:56:26.059Z,-4.43
2024-02-13T09:01:34.404Z,-4.21
2024-02-13T09:12:05.747Z,-4.47
2024-02-13T09:22:32.822Z,-4.42
2024-02-13T09:27:41.214Z,-4.09
2024-02-13T09:32:48.620Z,-4.24
2024-02-13T09:37:56.221Z,-4.33
2024-02-13T09:43:06.841Z,-4.59
2024-02-13T09:48:23.188Z,-4.52
2024-02-13T09:53:40.579Z,-4.56
2024-02-13T09:58:55.759Z,-4.44
2024-02-13T10:04:05.362Z,-4.63
2024-02-13T10:09:19.963Z,-5.01
2024-02-13T10:14:31.002Z,-4.94
2024-02-13T10:19:38.463Z,-4.89
2024-02-13T10:30:08.256Z,-4.37
2024-02-13T10:35:14.377Z,-4.47
2024-02-13T10:51:03.163Z,-4.25
2024-02-13T11:01:32.544Z,-4.64
2024-02-13T11:11:55.277Z,-4.84
2024-02-13T11:17:04.690Z,-4.87
2024-02-13T11:22:38.237Z,-4.75
2024-02-13T11:27:48.867Z,-4.62
2024-02-13T11:33:03.269Z,-4.92
2024-02-13T11:38:38.038Z,-5.01
2024-02-13T11:43:48.395Z,-5.43
2024-02-13T11:48:59.632Z,-5.73
2024-02-13T11:54:07.167Z,-5.80
2024-02-13T11:59:14.058Z,-5.81
2024-02-13T12:09:39.272Z,-5.87
2024-02-13T12:14:46.667Z,-6.19
2024-02-13T12:19:57.101Z,-6.10
2024-02-13T12:25:09.451Z,-6.01
2024-02-13T12:30:23.435Z,-5.95
2024-02-13T12:35:42.681Z,-6.12
2024-02-13T12:48:23.628Z,-6.64
2024-02-13T12:53:42.087Z,-6.76
2024-02-13T12:58:54.576Z,-6.80
2024-02-13T13:04:05.097Z,-6.92
2024-02-13T13:09:26.364Z,-6.81
2024-02-13T13:14:36.625Z,-6.85
2024-02-13T13:19:45.611Z,-6.74
2024-02-13T13:24:57.911Z,-6.78
2024-02-13T13:30:03.705Z,-6.93
2024-02-13T13:35:14.640Z,-7.15
2024-02-13T13:40:19.958Z,-7.41
2024-02-13T13:45:27.162Z,-7.53
2024-02-13T13:50:40.426Z,-7.66
2024-02-13T13:55:49.181Z,-7.58
2024-02-13T14:01:12.428Z,-7.64
2024-02-13T14:06:26.796Z,-7.85
2024-02-13T14:11:33.389Z,-7.92
2024-02-13T14:16:49.782Z,-7.92
2024-02-13T14:22:04.029Z,-7.94
2024-02-13T14:27:16.778Z,-7.82
2024-02-13T14:32:28.245Z,-7.81
2024-02-13T14:37:43.137Z,-7.80
2024-02-13T14:42:51.221Z,-7.84
2024-02-13T14:48:03.479Z,-7.97
2024-02-13T14:53:15.379Z,-7.93
2024-02-13T14:58:34.239Z,-7.95
2024-02-13T15:03:51.460Z,-8.17
2024-02-13T15:14:20.961Z,-8.22
2024-02-13T15:19:31.147Z,-8.31
2024-02-13T15:24:40.707Z,-8.30
2024-02-13T15:29:47.305Z,-8.35
2024-02-13T15:34:57.856Z,-8.43
2024-02-13T15:40:20.130Z,-8.36
2024-02-13T15:50:56.058Z,-8.48
2024-02-13T15:56:10.597Z,-8.70
2024-02-13T16:06:42.570Z,-8.64
2024-02-13T16:11:54.981Z,-8.53
2024-02-13T16:17:00.546Z,-8.53
2024-02-13T16:22:07.148Z,-8.50
2024-02-13T16:27:17.021Z,-8.49
2024-02-13T16:32:33.109Z,-8.50
2024-02-13T16:37:50.596Z,-8.44
2024-02-13T16:43:04.904Z,-8.39
2024-02-13T16:48:12.453Z,-8.41
2024-02-13T16:53:20.395Z,-8.48
2024-02-13T17:03:39.897Z,-8.52
2024-02-13T17:08:47.557Z,-8.60
2024-02-13T17:13:56.828Z,-8.69
2024-02-13T17:19:02.553Z,-8.66
2024-02-13T17:29:37.774Z,-8.85
2024-02-13T17:34:43.739Z,-8.78
2024-02-13T17:39:53.872Z,-8.88
2024-02-13T17:45:10.540Z,-8.91
2024-02-13T17:50:19.397Z,-8.93
2024-02-13T17:55:28.651Z,-8.96
2024-02-13T18:00:51.658Z,-9.09
2024-02-13T18:05:57.950Z,-9.07
2024-02-13T18:11:17.294Z,-9.15
2024-02-13T18:16:24.101Z,-9.18
2024-02-13T18:21:35.175Z,-9.31
2024-02-13T18:26:46.636Z,-9.30
2024-02-13T18:31:57.780Z,-9.49
2024-02-13T18:37:04.357Z,-9.46
2024-02-13T18:42:11.828Z,-9.50
2024-02-13T18:47:19.490Z,-9.63
2024-02-13T18:52:24.552Z,-9.73
2024-02-13T18:57:32.300Z,-9.98
2024-02-13T19:02:56.629Z,-9.87
2024-02-13T19:08:03.465Z,-9.98
2024-02-13T19:13:13.524Z,-10.12
2024-02-13T19:18:29.676Z,-10.23
2024-02-13T19:23:55.211Z,-10.44
2024-02-13T19:29:01.132Z,-10.46
2024-02-13T19:34:09.248Z,-10.58
2024-02-13T19:39:20.954Z,-10.70
2024-02-13T19:44:31.225Z,-10.83
2024-02-13T19:49:45.225Z,-10.90
2024-02-13T19:55:24.132Z,-11.03
2024-02-13T20:00:52.326Z,-11.07
2024-02-13T20:11:45.981Z,-11.30
2024-02-13T20:16:53.625Z,-11.29
2024-02-13T20:22:12.109Z,-11.38
2024-02-13T20:27:16.822Z,-11.48
2024-02-13T20:37:40.145Z,-11.55
2024-02-13T20:42:50.040Z,-11.57
2024-02-13T20:47:58.177Z,-11.61
2024-02-13T20:53:11.071Z,-11.69
2024-02-13T21:03:30.834Z,-11.80
2024-02-13T21:08:46.751Z,-11.83
2024-02-13T21:13:53.380Z,-11.89
2024-02-13T21:18:58.620Z,-11.88
2024-02-13T21:24:07.596Z,-12.00
2024-02-13T21:29:12.748Z,-11.91
2024-02-13T21:34:29.358Z,-12.09
2024-02-13T21:39:37.545Z,-12.01
2024-02-13T21:50:00.867Z,-12.18
2024-02-13T22:00:32.943Z,-12.27
2024-02-13T22:05:41.129Z,-12.21
2024-02-13T22:10:52.084Z,-12.37
2024-02-13T22:21:15.116Z,-12.37
2024-02-13T22:31:40.615Z,-12.39
2024-02-13T22:36:46.356Z,-12.54
2024-02-13T22:41:53.680Z,-12.58
2024-02-13T22:52:14.510Z,-12.67
2024-02-13T22:57:30.662Z,-12.80
2024-02-13T23:02:39.429Z,-12.74
2024-02-13T23:07:44.252Z,-12.79
2024-02-13T23:12:53.141Z,-12.88
2024-02-13T23:18:00.263Z,-12.90
2024-02-13T23:23:05.084Z,-12.91
2024-02-13T23:28:14.408Z,-12.95
2024-02-13T23:33:28.304Z,-12.93
2024-02-13T23:38:34.079Z,-13.02
2024-02-13T23:43:40.688Z,-12.98
2024-02-13T23:48:49.467Z,-13.06
2024-02-13T23:53:59.415Z,-13.05
2024-02-13T23:59:09.351Z,-13.18
